Pagrindinis puslapis
METAR-TAF:

METAR-TAF

Oro uostai :

Akrotiris, Kipras

platuma: 34-35N, ilguma: 032-59E, Aukštis: 23 m

Dabartinis oras

Ataskaita buvo paskelbta 37 minutes, ne 23:50 UTC
Vėjas 4 kt iš Vakarų/Šiaurės Vakarų
Temperatūra 20°C
Drėgmė 64%
Slėgis 1013 hPa
Matomumas 10 km arba daugiau
nėra debesų žemiau 1500 m ir nėra kamuolinių lietaus debesų

METAR: LCRA 312350Z 29004KT CAVOK 20/13 Q1013 NOSIG

Laikas: 02:27 (00:27 UTC)

Prognozė

Ataskaita buvo paskelbta 1 valandą ir 58 minutes, ne 22:29 UTC
Prognozė galioja nuo 01 metu 00 UTC su 01 metu 18 UTC
Vėjas 8 kt iš Šiaurės/Šiaurės Vakarų
Matomumas 10 km arba daugiau
nėra debesų žemiau 1500 m ir nėra kamuolinių lietaus debesų
Tapsmas
nuo 01 metu 09 UTC su 01 metu 11 UTC
Vėjas 15 kt iš Vakarų
Tikimybė 30% :
Laikinai
nuo 01 metu 11 UTC su 01 metu 16 UTC
Vėjas 15 kt iš Vakarų su gūsio iki 25 kt

TAF: LCRA 312229Z 0100/0118 33008KT CAVOK BECMG 0109/0111 27015KT PROB30 TEMPO 0111/0116 27015G25KT

Orai ataskaitas ir orų prognozės (METAR, TAF).

turimą stotys yra geltonos ir raudonos taškus žemėlapyje.

Perkelti pele per norėdami pamatyti stoties vardą.

Tada spustelėkite, norėdami matyti oro stebėjimo ir prognozės.

Norėdami pakeisti žemėlapį: spustelėkite ant žalios mygtukų su juodo kryžiaus žemyn,; žalią mygtuką su brūkšneliu, jei norite nutolinti; arba žalių rodyklių gretimoms žemėlapius.


METAR-TAF: